Time;durP1;ratioP1;P1;durP2;ratioP2;P2;SDS_P1;SDS_P2;PMS_P1;PMS_P2;Temp;Humidity;BMP_temperature;BMP_pressure;BME280_temperature;BME280_humidity;BME280_pressure;Samples;Min_cycle;Max_cycle;Signal;HPM_P1;HPM_P2
2022/09/25 00:00:47;;;;;;;0.10;0.10;;;;;;;10.62;100.00;101487.66;5047616;28;20051;-76
2022/09/25 00:03:14;;;;;;;0.10;0.10;;;;;;;10.70;100.00;101509.50;5047881;28;20024;-76
2022/09/25 00:05:41;;;;;;;0.10;0.10;;;;;;;10.67;100.00;101515.06;5053169;28;20028;-76
2022/09/25 00:08:07;;;;;;;0.10;0.10;;;;;;;10.50;100.00;101497.41;5051413;28;20029;-75
2022/09/25 00:10:33;;;;;;;0.10;0.10;;;;;;;10.37;100.00;101475.84;5055913;28;20034;-76
2022/09/25 00:12:58;;;;;;;0.10;0.10;;;;;;;10.53;100.00;101516.00;5054469;28;20036;-76
2022/09/25 00:15:24;;;;;;;0.10;0.10;;;;;;;10.59;100.00;101514.72;5047161;28;20021;-76
2022/09/25 00:17:49;;;;;;;0.10;0.10;;;;;;;10.58;100.00;101518.34;5049441;28;20060;-76
2022/09/25 00:20:15;;;;;;;0.10;0.10;;;;;;;10.39;100.00;101494.56;5055621;28;22131;-76
2022/09/25 00:22:41;;;;;;;0.10;0.10;;;;;;;10.43;100.00;101522.94;5051977;28;20025;-76
2022/09/25 00:25:09;;;;;;;0.00;0.00;;;;;;;10.41;100.00;101514.13;5062387;28;20350;-76
2022/09/25 00:27:35;;;;;;;0.10;0.10;;;;;;;10.40;100.00;101521.31;5054619;28;20051;-76
2022/09/25 00:30:00;;;;;;;0.10;0.10;;;;;;;10.37;100.00;101524.16;5054217;28;20033;-76
2022/09/25 00:32:25;;;;;;;0.13;0.13;;;;;;;10.36;100.00;101520.59;5055297;28;20040;-76
2022/09/25 00:34:50;;;;;;;0.10;0.10;;;;;;;10.38;100.00;101525.91;5050991;28;20068;-76
2022/09/25 00:37:16;;;;;;;0.00;0.00;;;;;;;10.36;100.00;101519.75;5046898;28;20039;-76
2022/09/25 00:39:41;;;;;;;0.10;0.10;;;;;;;10.32;100.00;101513.75;5050432;28;20059;-76
2022/09/25 00:42:06;;;;;;;0.10;0.10;;;;;;;10.24;100.00;101505.34;5058340;28;20077;-76
2022/09/25 00:44:47;;;;;;;0.10;0.10;;;;;;;10.31;100.00;101519.19;5048678;28;20024;-76
2022/09/25 00:47:15;;;;;;;0.10;0.10;;;;;;;10.14;100.00;101494.34;5050594;28;20481;-76
2022/09/25 00:49:40;;;;;;;0.10;0.10;;;;;;;10.20;100.00;101514.53;5051293;28;20063;-76
2022/09/25 00:52:11;;;;;;;0.10;0.10;;;;;;;10.18;100.00;101520.03;5054111;28;20029;-76
2022/09/25 00:54:41;;;;;;;0.10;0.10;;;;;;;10.03;100.00;101510.28;5055970;28;20037;-76
2022/09/25 00:57:10;;;;;;;0.00;0.00;;;;;;;9.94;100.00;101489.41;5047506;28;20529;-75
2022/09/25 00:59:38;;;;;;;0.10;0.10;;;;;;;10.10;100.00;101525.03;5048402;28;20036;-76
2022/09/25 01:02:04;;;;;;;0.10;0.10;;;;;;;10.03;100.00;101519.19;5056573;28;20878;-76
2022/09/25 01:04:32;;;;;;;0.10;0.10;;;;;;;10.07;100.00;101525.22;5051697;28;20040;-76
2022/09/25 01:06:58;;;;;;;0.08;0.08;;;;;;;10.10;100.00;101532.19;5066782;28;20058;-76
2022/09/25 01:09:24;;;;;;;0.10;0.10;;;;;;;10.10;100.00;101529.50;5050858;28;20384;-76
2022/09/25 01:11:49;;;;;;;0.10;0.10;;;;;;;9.91;100.00;101506.56;5051339;28;20034;-76
2022/09/25 01:14:16;;;;;;;0.08;0.08;;;;;;;9.98;100.00;101523.13;5057720;28;20052;-76
2022/09/25 01:16:53;;;;;;;0.10;0.10;;;;;;;9.90;100.00;101527.19;5071693;28;20028;-77
2022/09/25 01:19:25;;;;;;;0.10;0.10;;;;;;;9.91;100.00;101533.38;5060257;28;20457;-76
2022/09/25 01:22:05;;;;;;;0.08;0.08;;;;;;;9.70;100.00;101506.97;5051781;28;20028;-77
2022/09/25 01:24:42;;;;;;;0.13;0.13;;;;;;;9.78;100.00;101516.38;5059975;28;20482;-76
2022/09/25 01:27:26;;;;;;;0.10;0.10;;;;;;;9.83;100.00;101530.31;5048952;28;20037;-76
2022/09/25 01:30:13;;;;;;;0.05;0.05;;;;;;;9.77;100.00;101530.72;5061107;28;20025;-76
2022/09/25 01:32:54;;;;;;;0.10;0.10;;;;;;;9.72;100.00;101534.56;5060008;28;20855;-76
2022/09/25 01:35:19;;;;;;;0.10;0.10;;;;;;;9.70;100.00;101543.66;5044563;28;20028;-77
2022/09/25 01:37:54;;;;;;;0.10;0.10;;;;;;;9.66;100.00;101540.31;5055867;28;20021;-76
2022/09/25 01:40:24;;;;;;;0.20;0.20;;;;;;;9.60;100.00;101533.53;5049520;28;20023;-76
2022/09/25 01:43:23;;;;;;;0.10;0.10;;;;;;;9.39;100.00;101514.25;5059460;28;20055;-76
2022/09/25 01:45:56;;;;;;;0.10;0.10;;;;;;;9.37;100.00;101513.50;5044192;28;20112;-76
2022/09/25 01:48:30;;;;;;;0.00;0.00;;;;;;;9.47;100.00;101535.22;5056510;28;20466;-76
2022/09/25 01:51:05;;;;;;;0.10;0.10;;;;;;;9.41;100.00;101538.28;5052618;28;20101;-76
2022/09/25 01:53:36;;;;;;;0.10;0.10;;;;;;;9.34;100.00;101536.97;5052613;28;20025;-76
2022/09/25 01:56:06;;;;;;;0.10;0.10;;;;;;;9.33;100.00;101543.28;5054173;28;20040;-76
2022/09/25 01:58:39;;;;;;;0.10;0.10;;;;;;;9.26;100.00;101543.63;5052478;28;20111;-75
2022/09/25 02:01:09;;;;;;;0.10;0.10;;;;;;;9.04;100.00;101516.44;5054698;28;20553;-76
2022/09/25 02:03:51;;;;;;;0.10;0.10;;;;;;;9.03;100.00;101520.91;5061026;28;20055;-76
2022/09/25 02:06:19;;;;;;;0.13;0.13;;;;;;;9.09;100.00;101535.78;5049461;28;20036;-76
2022/09/25 02:08:59;;;;;;;0.00;0.00;;;;;;;9.03;100.00;101533.47;5052345;28;20035;-76
2022/09/25 02:11:27;;;;;;;0.10;0.10;;;;;;;8.96;100.00;101527.63;5053132;28;20033;-76
2022/09/25 02:13:57;;;;;;;0.10;0.10;;;;;;;8.94;100.00;101529.53;5061521;28;20403;-76
2022/09/25 02:16:32;;;;;;;0.08;0.08;;;;;;;9.01;100.00;101536.22;5059213;28;20033;-75
2022/09/25 02:21:52;;;;;;;0.10;0.10;;;;;;;8.98;100.00;101533.75;5064897;28;20371;-76
2022/09/25 02:24:42;;;;;;;0.10;0.10;;;;;;;9.02;100.00;101537.09;5058623;28;20068;-75
2022/09/25 02:27:07;;;;;;;0.05;0.05;;;;;;;8.94;100.00;101527.69;5052531;28;20111;-76
2022/09/25 02:29:33;;;;;;;0.10;0.10;;;;;;;8.92;100.00;101539.47;5047906;28;20028;-75
2022/09/25 02:32:04;;;;;;;0.10;0.10;;;;;;;8.81;100.00;101522.22;5055457;28;20432;-76
2022/09/25 02:34:30;;;;;;;0.10;0.10;;;;;;;8.94;100.00;101542.91;5067858;28;20037;-76
2022/09/25 02:36:56;;;;;;;0.00;0.00;;;;;;;8.78;100.00;101522.38;5048032;28;20029;-76
2022/09/25 02:39:23;;;;;;;0.10;0.10;;;;;;;8.77;100.00;101509.09;5053629;28;20033;-76
2022/09/25 02:42:03;;;;;;;0.10;0.10;;;;;;;8.78;100.00;101534.94;5060354;28;20036;-75
2022/09/25 02:44:37;;;;;;;0.00;0.00;;;;;;;8.78;100.00;101545.63;5048517;28;20487;-76
2022/09/25 02:47:27;;;;;;;0.10;0.10;;;;;;;8.63;100.00;101545.56;5056351;28;20031;-76
2022/09/25 02:50:04;;;;;;;0.10;0.10;;;;;;;8.55;100.00;101545.19;5056279;28;20076;-75
2022/09/25 02:52:49;;;;;;;0.55;0.55;;;;;;;8.42;100.00;101542.31;5052725;28;20522;-76
2022/09/25 02:55:38;;;;;;;0.10;0.10;;;;;;;8.23;100.00;101521.94;5050019;28;20036;-76
2022/09/25 02:58:31;;;;;;;0.10;0.10;;;;;;;8.25;100.00;101524.53;5059928;28;20107;-76
2022/09/25 03:00:56;;;;;;;0.00;0.00;;;;;;;8.23;100.00;101521.09;5057054;28;20052;-76
2022/09/25 03:03:23;;;;;;;0.03;0.03;;;;;;;8.24;100.00;101529.00;5056755;28;20629;-76
2022/09/25 03:05:50;;;;;;;0.10;0.10;;;;;;;8.23;100.00;101526.44;5058424;28;20029;-76
2022/09/25 03:11:00;;;;;;;;;;;;;;;8.15;100.00;101531.34;5050001;28;20098;-76
2022/09/25 03:13:30;;;;;;;0.10;0.10;;;;;;;8.07;100.00;101524.66;5051079;28;20430;-76
2022/09/25 03:15:59;;;;;;;0.10;0.10;;;;;;;7.95;100.00;101517.31;5056637;28;20063;-76
2022/09/25 03:18:25;;;;;;;0.10;0.10;;;;;;;7.95;100.00;101520.81;5063198;28;20071;-76
2022/09/25 03:20:51;;;;;;;0.00;0.00;;;;;;;8.00;100.00;101525.06;5063060;28;20602;-76
2022/09/25 03:23:16;;;;;;;0.10;0.10;;;;;;;7.76;100.00;101488.94;5052521;28;20103;-76
2022/09/25 03:25:42;;;;;;;0.10;0.10;;;;;;;7.98;100.00;101534.97;5048606;28;20043;-76
2022/09/25 03:28:11;;;;;;;0.10;0.10;;;;;;;7.67;100.00;101485.91;5055757;28;20471;-76
2022/09/25 03:30:39;;;;;;;0.00;0.00;;;;;;;7.89;100.00;101528.34;5056476;28;20430;-76
2022/09/25 03:33:05;;;;;;;0.05;0.05;;;;;;;7.79;100.00;101526.19;5053111;28;20032;-76
2022/09/25 03:35:30;;;;;;;0.10;0.10;;;;;;;7.70;100.00;101525.81;5055656;28;20083;-75
2022/09/25 03:37:55;;;;;;;0.05;0.05;;;;;;;7.74;100.00;101530.91;5056210;28;20063;-76
2022/09/25 03:40:20;;;;;;;0.10;0.10;;;;;;;7.62;100.00;101507.53;5058949;28;20016;-76
2022/09/25 03:42:46;;;;;;;1.35;1.25;;;;;;;7.45;100.00;101497.75;5055595;28;20261;-76
2022/09/25 03:45:11;;;;;;;0.10;0.10;;;;;;;7.27;100.00;101488.94;5064820;28;20505;-76
2022/09/25 03:47:37;;;;;;;0.00;0.00;;;;;;;7.49;100.00;101526.03;5054845;28;20526;-75
2022/09/25 03:50:02;;;;;;;0.05;0.05;;;;;;;7.47;100.00;101511.88;5063492;28;20077;-76
2022/09/25 03:52:28;;;;;;;0.00;0.00;;;;;;;7.50;100.00;101517.06;5046095;28;20063;-76
2022/09/25 03:54:53;;;;;;;0.10;0.10;;;;;;;7.45;100.00;101525.34;5058122;28;20036;-76
2022/09/25 03:57:18;;;;;;;0.10;0.10;;;;;;;7.43;100.00;101513.88;5048854;28;20032;-75
2022/09/25 03:59:43;;;;;;;0.00;0.00;;;;;;;7.41;100.00;101518.44;5048787;28;20029;-76
2022/09/25 04:02:09;;;;;;;0.03;0.03;;;;;;;7.22;100.00;101489.16;5058570;28;20099;-75
2022/09/25 04:04:36;;;;;;;0.13;0.13;;;;;;;7.33;100.00;101509.97;5060689;28;20529;-76
2022/09/25 04:07:01;;;;;;;0.10;0.10;;;;;;;7.20;100.00;101497.28;5053592;28;20031;-76
2022/09/25 04:09:27;;;;;;;0.40;0.40;;;;;;;7.24;100.00;101511.31;5051088;28;20549;-76
2022/09/25 04:11:54;;;;;;;0.00;0.00;;;;;;;7.28;100.00;101526.25;5055615;28;20422;-76
2022/09/25 04:14:19;;;;;;;0.10;0.10;;;;;;;7.02;100.00;101480.41;5056343;28;20397;-76
2022/09/25 04:16:45;;;;;;;0.10;0.10;;;;;;;7.13;100.00;101511.88;5051578;28;22158;-75
2022/09/25 04:19:11;;;;;;;0.10;0.10;;;;;;;7.14;100.00;101520.78;5056662;28;20155;-76
2022/09/25 04:21:36;;;;;;;0.08;0.08;;;;;;;7.17;100.00;101525.94;5051030;28;20524;-76
2022/09/25 04:26:46;;;;;;;0.10;0.10;;;;;;;7.22;100.00;101523.88;5057400;28;20116;-75
2022/09/25 04:29:13;;;;;;;0.10;0.10;;;;;;;7.26;100.00;101524.59;5047233;28;20037;-76
2022/09/25 04:31:38;;;;;;;0.10;0.10;;;;;;;7.27;100.00;101521.00;5060280;28;20041;-76
2022/09/25 04:34:03;;;;;;;0.10;0.10;;;;;;;7.21;100.00;101511.47;5056036;28;20028;-76
2022/09/25 04:36:29;;;;;;;0.10;0.10;;;;;;;7.28;100.00;101526.25;5059136;28;20532;-76
2022/09/25 04:38:54;;;;;;;0.10;0.10;;;;;;;7.32;100.00;101524.25;5055749;28;20025;-75
2022/09/25 04:41:20;;;;;;;0.03;0.03;;;;;;;7.34;100.00;101520.56;5053732;28;20469;-76
2022/09/25 04:43:45;;;;;;;0.20;0.20;;;;;;;7.33;100.00;101517.97;5046876;28;20031;-75
2022/09/25 04:46:11;;;;;;;0.10;0.10;;;;;;;7.39;100.00;101531.00;5060647;28;20032;-75
2022/09/25 04:48:37;;;;;;;0.10;0.10;;;;;;;7.34;100.00;101506.34;5056329;28;20071;-76
2022/09/25 04:51:03;;;;;;;0.00;0.00;;;;;;;7.33;100.00;101512.63;5050143;28;20028;-75
2022/09/25 04:53:30;;;;;;;0.10;0.10;;;;;;;7.32;100.00;101525.13;5056738;28;20509;-75
2022/09/25 04:56:00;;;;;;;0.10;0.10;;;;;;;7.14;100.00;101491.41;5054502;28;20320;-75
2022/09/25 04:58:27;;;;;;;0.03;0.03;;;;;;;7.26;100.00;101519.25;5049940;28;20031;-76
2022/09/25 05:00:52;;;;;;;0.10;0.10;;;;;;;7.25;100.00;101523.72;5052983;28;20120;-75
2022/09/25 05:03:18;;;;;;;0.10;0.10;;;;;;;7.01;100.00;101486.69;5051291;28;20111;-75
2022/09/25 05:05:43;;;;;;;0.10;0.10;;;;;;;7.23;100.00;101517.59;5056953;28;20044;-75
2022/09/25 05:08:09;;;;;;;0.10;0.10;;;;;;;7.26;100.00;101511.25;5055940;28;20035;-75
2022/09/25 05:10:35;;;;;;;0.00;0.00;;;;;;;7.17;100.00;101496.56;5049726;28;20033;-75
2022/09/25 05:13:01;;;;;;;0.05;0.05;;;;;;;7.06;100.00;101475.75;5034470;28;20039;-75
2022/09/25 05:15:30;;;;;;;0.10;0.10;;;;;;;7.27;100.00;101507.63;5050887;28;20178;-75
2022/09/25 05:18:06;;;;;;;0.10;0.10;;;;;;;7.20;100.00;101499.06;5062941;28;20055;-75
2022/09/25 05:20:32;;;;;;;0.10;0.10;;;;;;;7.29;100.00;101511.06;5053430;28;20021;-75
2022/09/25 05:22:58;;;;;;;0.10;0.10;;;;;;;7.19;100.00;101497.34;5053824;28;20067;-75
2022/09/25 05:25:24;;;;;;;0.13;0.03;;;;;;;7.30;100.00;101512.78;5055698;28;20025;-75
2022/09/25 05:27:52;;;;;;;0.10;0.10;;;;;;;7.25;100.00;101498.84;5060103;28;20514;-75
2022/09/25 05:30:17;;;;;;;0.10;0.10;;;;;;;7.25;100.00;101510.38;5046849;28;20117;-75
2022/09/25 05:32:48;;;;;;;0.05;0.05;;;;;;;7.22;100.00;101499.84;5059434;28;20025;-75
2022/09/25 05:35:14;;;;;;;0.10;0.10;;;;;;;7.27;100.00;101495.13;5047802;28;20041;-75
2022/09/25 05:37:40;;;;;;;0.40;0.40;;;;;;;6.94;100.00;101455.91;5056831;28;20029;-75
2022/09/25 05:40:06;;;;;;;0.17;0.17;;;;;;;6.88;100.00;101465.13;5053548;28;20032;-75
2022/09/25 05:42:31;;;;;;;0.10;0.10;;;;;;;7.05;100.00;101509.63;5061151;28;20043;-75
2022/09/25 05:44:56;;;;;;;0.10;0.10;;;;;;;6.98;100.00;101488.66;5049600;28;20105;-75
2022/09/25 05:47:22;;;;;;;0.10;0.10;;;;;;;7.12;100.00;101510.16;5066978;28;20385;-75
2022/09/25 05:49:47;;;;;;;0.10;0.10;;;;;;;7.19;100.00;101505.34;5056307;28;20052;-75
2022/09/25 05:52:12;;;;;;;0.10;0.10;;;;;;;7.17;100.00;101502.78;5057435;28;20043;-75
2022/09/25 05:54:37;;;;;;;0.10;0.10;;;;;;;7.12;100.00;101487.94;5052775;28;20037;-75
2022/09/25 05:57:03;;;;;;;0.10;0.10;;;;;;;7.20;100.00;101507.06;5062850;28;21461;-75
2022/09/25 05:59:28;;;;;;;0.10;0.10;;;;;;;7.00;100.00;101484.97;5055184;28;20029;-75
2022/09/25 06:01:53;;;;;;;0.00;0.00;;;;;;;7.23;100.00;101525.63;5058143;28;20020;-75
2022/09/25 06:04:19;;;;;;;0.10;0.10;;;;;;;7.25;100.00;101522.88;5055514;28;20033;-76
2022/09/25 06:06:44;;;;;;;0.10;0.10;;;;;;;7.33;100.00;101525.97;5058593;28;20064;-75
2022/09/25 06:09:09;;;;;;;0.08;0.08;;;;;;;7.15;100.00;101498.47;5059095;28;20115;-75
2022/09/25 06:11:35;;;;;;;0.10;0.10;;;;;;;7.31;100.00;101502.03;5052799;28;20031;-75
2022/09/25 06:14:00;;;;;;;0.10;0.10;;;;;;;7.28;100.00;101490.66;5050409;28;20040;-75
2022/09/25 06:16:25;;;;;;;0.10;0.10;;;;;;;7.43;100.00;101508.53;5070248;28;20424;-75
2022/09/25 06:18:51;;;;;;;0.10;0.10;;;;;;;7.60;100.00;101523.66;5061237;28;20580;-75
2022/09/25 06:21:17;;;;;;;0.10;0.10;;;;;;;7.70;100.00;101524.00;5058295;28;20126;-76
2022/09/25 06:23:44;;;;;;;0.03;0.03;;;;;;;7.81;100.00;101520.75;5057559;28;20114;-75
2022/09/25 06:26:09;;;;;;;0.10;0.10;;;;;;;7.90;100.00;101517.56;5058636;28;20024;-75
2022/09/25 06:28:35;;;;;;;0.10;0.10;;;;;;;8.02;100.00;101515.13;5057055;28;20620;-75
2022/09/25 06:31:01;;;;;;;0.10;0.10;;;;;;;8.08;100.00;101525.50;5059203;28;20040;-75
2022/09/25 06:33:26;;;;;;;0.15;0.15;;;;;;;8.07;100.00;101513.94;5057660;28;20036;-75
2022/09/25 06:35:52;;;;;;;0.10;0.10;;;;;;;8.09;100.00;101495.13;5056606;28;20442;-76
2022/09/25 06:38:17;;;;;;;0.10;0.10;;;;;;;8.23;100.00;101505.03;5053818;28;20029;-76
2022/09/25 06:40:43;;;;;;;0.10;0.10;;;;;;;8.40;100.00;101529.00;5056243;28;20474;-76
2022/09/25 06:43:09;;;;;;;0.10;0.10;;;;;;;8.35;100.00;101512.34;5055178;28;20063;-76
2022/09/25 06:45:37;;;;;;;0.10;0.10;;;;;;;8.54;100.00;101524.72;5051490;28;20031;-75
2022/09/25 06:48:14;;;;;;;0.10;0.10;;;;;;;8.22;100.00;101474.75;5053448;28;20043;-75
2022/09/25 06:50:41;;;;;;;0.10;0.10;;;;;;;8.67;100.00;101524.84;5052325;28;20029;-76
2022/09/25 06:53:07;;;;;;;0.00;0.00;;;;;;;8.72;100.00;101525.44;5063206;28;20021;-76
2022/09/25 06:55:33;;;;;;;0.10;0.10;;;;;;;8.74;100.00;101520.84;5049846;28;20033;-75
2022/09/25 06:57:59;;;;;;;0.00;0.00;;;;;;;8.64;100.00;101488.41;5051650;28;20037;-75
2022/09/25 07:00:25;;;;;;;0.10;0.10;;;;;;;8.88;100.00;101524.53;5048640;28;20036;-75
2022/09/25 07:05:34;;;;;;;0.00;0.00;;;;;;;8.99;100.00;101516.72;5051891;28;20031;-75
2022/09/25 07:08:00;;;;;;;0.10;0.10;;;;;;;9.12;100.00;101528.41;5055715;28;20040;-75
2022/09/25 07:10:25;;;;;;;0.10;0.10;;;;;;;9.19;100.00;101520.84;5054086;28;20037;-75
2022/09/25 07:12:50;;;;;;;0.10;0.10;;;;;;;9.25;100.00;101516.94;5049869;28;20029;-75
2022/09/25 07:15:16;;;;;;;0.00;0.00;;;;;;;9.47;100.00;101537.06;5050915;28;20032;-75
2022/09/25 07:17:42;;;;;;;0.10;0.10;;;;;;;9.64;100.00;101544.06;5053517;28;20150;-75
2022/09/25 07:20:09;;;;;;;0.00;0.00;;;;;;;9.72;100.00;101533.69;5049614;28;20031;-75
2022/09/25 07:22:34;;;;;;;0.10;0.10;;;;;;;9.65;100.00;101502.88;5059332;28;20056;-75
2022/09/25 07:24:59;;;;;;;0.10;0.10;;;;;;;10.02;100.00;101544.31;5051997;28;20039;-75
2022/09/25 07:27:25;;;;;;;0.00;0.00;;;;;;;10.13;100.00;101534.69;5057602;28;20107;-75
2022/09/25 07:29:50;;;;;;;0.10;0.10;;;;;;;10.34;100.00;101548.53;5053417;28;20032;-73
2022/09/25 07:32:16;;;;;;;0.10;0.10;;;;;;;10.48;100.00;101551.19;5054393;28;20045;-75
2022/09/25 07:34:41;;;;;;;0.10;0.10;;;;;;;10.55;100.00;101540.91;5048010;28;20490;-74
2022/09/25 07:37:06;;;;;;;0.10;0.10;;;;;;;10.79;100.00;101543.75;5049107;28;20112;-74
2022/09/25 07:39:32;;;;;;;0.10;0.10;;;;;;;10.77;100.00;101534.09;5056079;28;20375;-73
2022/09/25 07:41:57;;;;;;;0.00;0.00;;;;;;;10.97;100.00;101543.50;5051215;28;20019;-76
2022/09/25 07:44:23;;;;;;;0.10;0.10;;;;;;;11.03;100.00;101540.38;5053703;28;20029;-76
2022/09/25 07:46:48;;;;;;;0.10;0.10;;;;;;;10.97;100.00;101511.25;5054558;28;20107;-75
2022/09/25 07:49:13;;;;;;;0.10;0.10;;;;;;;11.15;100.00;101529.75;5058381;28;20028;-77
2022/09/25 07:51:39;;;;;;;0.10;0.10;;;;;;;11.38;100.00;101529.00;5059736;28;20075;-76
2022/09/25 07:54:04;;;;;;;0.10;0.10;;;;;;;11.47;100.00;101527.47;5055185;28;20036;-75
2022/09/25 07:56:30;;;;;;;0.10;0.10;;;;;;;11.64;100.00;101525.44;5055184;28;20087;-72
2022/09/25 07:58:55;;;;;;;0.10;0.10;;;;;;;11.83;100.00;101535.72;5050551;28;20028;-73
2022/09/25 08:01:20;;;;;;;0.10;0.10;;;;;;;12.01;100.00;101536.25;5052273;28;20032;-72
2022/09/25 08:03:48;;;;;;;0.00;0.00;;;;;;;12.17;100.00;101538.69;5049894;28;20028;-73
2022/09/25 08:06:13;;;;;;;0.10;0.10;;;;;;;12.20;100.00;101525.00;5051636;28;20021;-74
2022/09/25 08:08:40;;;;;;;0.10;0.10;;;;;;;12.28;100.00;101506.47;5054595;28;20024;-73
2022/09/25 08:11:11;;;;;;;0.10;0.10;;;;;;;12.37;100.00;101499.53;5055744;28;20075;-73
2022/09/25 08:13:37;;;;;;;0.10;0.10;;;;;;;12.67;100.00;101513.47;5060877;28;20119;-74
2022/09/25 08:16:12;;;;;;;0.10;0.10;;;;;;;12.68;100.00;101507.09;5051476;28;20032;-73
2022/09/25 08:18:41;;;;;;;0.10;0.10;;;;;;;12.92;100.00;101519.66;5049021;28;20033;-72
2022/09/25 08:21:07;;;;;;;0.10;0.10;;;;;;;12.95;100.00;101497.88;5052673;28;20020;-74
2022/09/25 08:23:32;;;;;;;0.10;0.10;;;;;;;12.99;100.00;101481.31;5058024;28;20504;-73
2022/09/25 08:25:58;;;;;;;0.10;0.10;;;;;;;13.26;100.00;101499.00;5053142;28;20031;-73
2022/09/25 08:28:24;;;;;;;0.10;0.10;;;;;;;13.45;100.00;101503.84;5039427;28;20025;-73
2022/09/25 08:30:49;;;;;;;0.10;0.10;;;;;;;13.61;100.00;101516.97;5050341;28;20553;-73
2022/09/25 08:33:15;;;;;;;0.10;0.10;;;;;;;13.70;100.00;101503.72;5050766;28;20043;-73
2022/09/25 08:35:40;;;;;;;0.00;0.00;;;;;;;13.78;100.00;101502.13;5050552;28;20032;-73
2022/09/25 08:38:07;;;;;;;0.10;0.10;;;;;;;13.92;100.00;101492.91;5059568;28;20048;-72
2022/09/25 08:40:33;;;;;;;0.10;0.10;;;;;;;14.22;100.00;101526.47;5053161;28;20466;-74
2022/09/25 08:42:59;;;;;;;0.10;0.10;;;;;;;14.41;100.00;101541.16;5051894;28;20418;-74
2022/09/25 08:51:08;;;;;;;0.13;0.13;;;;;;;14.53;96.93;101532.03;5055415;28;20071;-73
2022/09/25 08:53:34;;;;;;;0.10;0.10;;;;;;;14.65;100.00;101513.03;5067211;28;20032;-73
2022/09/25 08:56:16;;;;;;;0.10;0.10;;;;;;;14.59;97.75;101506.31;5060500;28;20409;-73
2022/09/25 08:58:55;;;;;;;0.10;0.10;;;;;;;14.32;91.45;101460.88;5057460;28;20048;-73
2022/09/25 09:01:40;;;;;;;0.10;0.10;;;;;;;14.60;95.15;101474.75;5052872;28;20209;-73
2022/09/25 09:04:13;;;;;;;0.08;0.08;;;;;;;14.96;97.37;101507.75;5061795;28;20049;-74
2022/09/25 09:06:40;;;;;;;0.10;0.10;;;;;;;15.20;94.52;101534.53;5052806;28;20463;-74
2022/09/25 09:09:09;;;;;;;0.10;0.10;;;;;;;15.35;93.66;101521.53;5051359;28;20073;-74
2022/09/25 09:11:51;;;;;;;0.10;0.10;;;;;;;15.50;94.68;101513.03;5049038;28;20037;-73
2022/09/25 09:14:19;;;;;;;0.10;0.10;;;;;;;15.59;94.78;101512.25;5050232;28;20047;-73
2022/09/25 09:16:50;;;;;;;0.00;0.00;;;;;;;15.65;91.15;101508.13;5055094;28;20024;-73
2022/09/25 09:19:16;;;;;;;0.00;0.00;;;;;;;15.72;88.99;101512.00;5051470;28;20081;-74
2022/09/25 09:21:44;;;;;;;0.10;0.10;;;;;;;15.75;87.84;101531.53;5048239;28;20033;-74
2022/09/25 09:24:14;;;;;;;0.00;0.00;;;;;;;15.60;85.16;101512.09;5048726;28;20036;-75
2022/09/25 09:26:53;;;;;;;0.00;0.00;;;;;;;15.69;89.13;101483.34;5051039;28;20041;-75
2022/09/25 09:29:31;;;;;;;0.10;0.10;;;;;;;16.12;85.37;101521.97;5066090;28;20021;-74
2022/09/25 09:32:37;;;;;;;0.03;0.03;;;;;;;16.09;84.87;101516.00;5051823;28;20027;-75
2022/09/25 09:35:09;;;;;;;0.00;0.00;;;;;;;16.31;88.30;101517.56;5058772;28;20436;-73
2022/09/25 09:38:03;;;;;;;0.00;0.00;;;;;;;16.58;86.37;101506.06;5053264;28;20025;-73
2022/09/25 09:40:31;;;;;;;;;;;;;;;16.67;74.92;101517.03;5054124;28;20048;-76
2022/09/25 09:43:06;;;;;;;0.00;0.00;;;;;;;16.75;79.35;101493.63;5068545;28;19923;-72
2022/09/25 09:45:45;;;;;;;0.00;0.00;;;;;;;17.09;75.46;101516.72;5061553;28;20036;-75
2022/09/25 09:48:10;;;;;;;0.00;0.00;;;;;;;17.08;75.44;101515.84;5062306;28;20406;-75
2022/09/25 09:50:40;;;;;;;0.00;0.00;;;;;;;16.81;76.85;101511.16;5051986;28;20132;-74
2022/09/25 09:53:23;;;;;;;0.00;0.00;;;;;;;16.76;77.52;101519.75;5059273;28;20040;-77
2022/09/25 09:55:51;;;;;;;0.10;0.10;;;;;;;16.50;76.23;101514.03;5057780;28;20025;-76
2022/09/25 09:58:25;;;;;;;0.00;0.00;;;;;;;16.61;74.91;101494.94;5059108;28;20067;-76
2022/09/25 10:00:51;;;;;;;0.03;0.03;;;;;;;17.06;76.66;101496.19;5056683;28;20068;-77
2022/09/25 10:03:23;;;;;;;0.00;0.00;;;;;;;17.45;72.58;101507.91;5062095;28;20028;-74
2022/09/25 10:05:52;;;;;;;0.10;0.10;;;;;;;17.84;73.03;101510.47;5057058;28;20024;-77
2022/09/25 10:08:17;;;;;;;0.00;0.00;;;;;;;17.96;72.45;101492.09;5049572;28;20033;-77
2022/09/25 10:10:52;;;;;;;0.00;0.00;;;;;;;18.12;68.10;101507.75;5055385;28;20028;-78
2022/09/25 10:13:19;;;;;;;0.00;0.00;;;;;;;18.43;71.16;101508.25;5045051;28;20474;-77
2022/09/25 10:16:00;;;;;;;0.00;0.00;;;;;;;18.54;68.94;101490.00;5045836;28;20082;-77
2022/09/25 10:18:30;;;;;;;0.00;0.00;;;;;;;18.52;67.27;101495.56;5057718;28;20040;-77
2022/09/25 10:21:04;;;;;;;0.00;0.00;;;;;;;18.46;66.43;101503.50;5053356;28;20020;-77
2022/09/25 10:23:44;;;;;;;;;;;;;;;17.97;62.79;101510.09;5051089;28;20029;-77
2022/09/25 10:26:29;;;;;;;0.00;0.00;;;;;;;18.25;64.95;101491.91;5054834;28;20256;-76
2022/09/25 10:29:14;;;;;;;0.00;0.00;;;;;;;18.63;64.63;101505.34;5054888;28;20035;-76
2022/09/25 10:31:40;;;;;;;0.10;0.10;;;;;;;19.21;65.09;101494.94;5061880;28;20047;-77
2022/09/25 10:34:11;;;;;;;0.00;0.00;;;;;;;19.77;62.02;101495.38;5056533;28;20033;-76
2022/09/25 10:36:40;;;;;;;0.00;0.00;;;;;;;20.29;61.61;101481.75;5054330;28;20044;-76
2022/09/25 10:39:32;;;;;;;0.00;0.00;;;;;;;19.67;53.38;101470.16;5056387;28;20028;-76
2022/09/25 10:41:59;;;;;;;0.00;0.00;;;;;;;19.17;59.82;101479.94;5064696;28;20035;-77
2022/09/25 10:44:34;;;;;;;0.00;0.00;;;;;;;18.89;60.10;101491.81;5050841;28;20120;-77
2022/09/25 10:50:22;;;;;;;0.10;0.10;;;;;;;19.71;58.02;101489.75;5057622;28;20358;-77
2022/09/25 10:52:58;;;;;;;0.00;0.00;;;;;;;20.36;52.44;101483.63;5054060;28;20032;-76
2022/09/25 10:55:29;;;;;;;0.00;0.00;;;;;;;21.20;52.33;101482.59;5047443;28;20063;-78
2022/09/25 10:58:09;;;;;;;0.00;0.00;;;;;;;21.57;51.93;101488.44;5054012;28;20044;-77
2022/09/25 11:00:52;;;;;;;0.00;0.00;;;;;;;21.63;52.14;101484.19;5049117;28;20082;-77
2022/09/25 11:03:21;;;;;;;0.00;0.00;;;;;;;21.48;49.98;101487.63;5052495;28;20119;-80
2022/09/25 11:06:19;;;;;;;0.00;0.00;;;;;;;21.03;48.78;101479.03;5055631;28;20283;-77
2022/09/25 11:08:46;;;;;;;0.05;0.05;;;;;;;21.90;49.30;101476.53;5056204;28;20499;-74
2022/09/25 11:11:12;;;;;;;0.00;0.00;;;;;;;22.53;48.76;101473.75;5051559;28;20079;-78
2022/09/25 11:13:47;;;;;;;0.00;0.00;;;;;;;21.81;46.76;101465.66;5062058;28;20028;-78
2022/09/25 11:16:12;;;;;;;0.00;0.00;;;;;;;22.44;48.44;101460.13;5051351;28;20037;-78
2022/09/25 11:18:44;;;;;;;0.10;0.10;;;;;;;23.31;45.62;101470.78;5049979;28;20383;-75
2022/09/25 11:21:26;;;;;;;0.10;0.10;;;;;;;24.55;42.87;101478.16;5063425;28;20095;-78
2022/09/25 11:24:28;;;;;;;0.00;0.00;;;;;;;24.99;39.39;101470.75;5060197;28;20671;-74
2022/09/25 11:27:06;;;;;;;0.00;0.00;;;;;;;24.26;42.61;101460.78;5059616;28;20048;-75
2022/09/25 11:29:46;;;;;;;0.00;0.00;;;;;;;22.92;44.24;101465.34;5050962;28;20047;-75
2022/09/25 11:32:24;;;;;;;0.00;0.00;;;;;;;21.44;45.45;101461.69;5059750;28;20063;-76
2022/09/25 11:35:01;;;;;;;0.00;0.00;;;;;;;21.02;49.33;101463.69;5062276;28;20107;-75
2022/09/25 11:37:33;;;;;;;0.00;0.00;;;;;;;20.64;49.57;101469.66;5053394;28;20463;-75
2022/09/25 11:43:45;;;;;;;0.00;0.00;;;;;;;21.95;49.06;101460.44;5005203;28;20441;-74
2022/09/25 11:46:38;;;;;;;0.00;0.00;;;;;;;23.42;47.19;101426.50;5054477;28;20051;-74
2022/09/25 11:49:12;;;;;;;0.10;0.10;;;;;;;24.32;43.14;101458.31;5055289;28;20360;-74
2022/09/25 11:51:47;;;;;;;0.10;0.10;;;;;;;24.88;42.34;101453.97;5054581;28;20036;-73
2022/09/25 11:54:34;;;;;;;0.00;0.00;;;;;;;25.52;41.65;101452.06;5054404;28;20037;-76
2022/09/25 11:57:09;;;;;;;0.08;0.08;;;;;;;25.55;38.07;101440.66;5053556;28;20072;-74
2022/09/25 12:00:24;;;;;;;0.00;0.00;;;;;;;25.34;38.13;101445.16;5052475;28;20421;-74